sensor_id;sensor_type;location;lat;lon;timestamp;pressure;altitude;pressure_sealevel;temperature;humidity
19526;BME280;9907;42.676;26.348;2023-03-03T00:01:43;99234.03;;;6.05;100.00
19526;BME280;9907;42.676;26.348;2023-03-03T00:04:08;99237.84;;;6.01;100.00
19526;BME280;9907;42.676;26.348;2023-03-03T00:06:34;99234.63;;;5.96;100.00
19526;BME280;9907;42.676;26.348;2023-03-03T00:09:00;99237.00;;;6.00;100.00
19526;BME280;9907;42.676;26.348;2023-03-03T00:11:25;99229.66;;;6.04;100.00
19526;BME280;9907;42.676;26.348;2023-03-03T00:13:54;99232.13;;;6.07;100.00
19526;BME280;9907;42.676;26.348;2023-03-03T00:16:38;99220.00;;;6.03;100.00
19526;BME280;9907;42.676;26.348;2023-03-03T00:19:12;99227.78;;;6.06;100.00
19526;BME280;9907;42.676;26.348;2023-03-03T00:21:44;99221.50;;;6.07;100.00
19526;BME280;9907;42.676;26.348;2023-03-03T00:26:40;99205.59;;;6.07;100.00
19526;BME280;9907;42.676;26.348;2023-03-03T00:29:29;99214.94;;;6.12;100.00
19526;BME280;9907;42.676;26.348;2023-03-03T00:32:07;99198.78;;;6.03;100.00
19526;BME280;9907;42.676;26.348;2023-03-03T00:34:43;99188.19;;;6.03;100.00
19526;BME280;9907;42.676;26.348;2023-03-03T00:37:29;99184.81;;;6.01;100.00
19526;BME280;9907;42.676;26.348;2023-03-03T00:40:21;99179.50;;;6.01;100.00
19526;BME280;9907;42.676;26.348;2023-03-03T00:42:51;99181.84;;;6.05;100.00
19526;BME280;9907;42.676;26.348;2023-03-03T00:45:27;99175.78;;;6.03;100.00
19526;BME280;9907;42.676;26.348;2023-03-03T00:47:56;99165.94;;;6.05;100.00
19526;BME280;9907;42.676;26.348;2023-03-03T00:50:29;99169.63;;;6.03;100.00
19526;BME280;9907;42.676;26.348;2023-03-03T00:53:00;99168.03;;;6.00;100.00
19526;BME280;9907;42.676;26.348;2023-03-03T00:55:27;99162.09;;;5.97;100.00
19526;BME280;9907;42.676;26.348;2023-03-03T00:57:53;99161.38;;;5.95;100.00
19526;BME280;9907;42.676;26.348;2023-03-03T01:00:19;99158.38;;;5.99;100.00
19526;BME280;9907;42.676;26.348;2023-03-03T01:02:44;99151.06;;;6.03;100.00
19526;BME280;9907;42.676;26.348;2023-03-03T01:05:13;99156.81;;;5.97;100.00
19526;BME280;9907;42.676;26.348;2023-03-03T01:07:39;99149.16;;;5.92;100.00
19526;BME280;9907;42.676;26.348;2023-03-03T01:10:05;99152.13;;;5.87;100.00
19526;BME280;9907;42.676;26.348;2023-03-03T01:12:31;99145.00;;;5.88;100.00
19526;BME280;9907;42.676;26.348;2023-03-03T01:14:56;99146.63;;;5.91;100.00
19526;BME280;9907;42.676;26.348;2023-03-03T01:17:22;99154.38;;;5.94;100.00
19526;BME280;9907;42.676;26.348;2023-03-03T01:19:47;99143.13;;;5.90;100.00
19526;BME280;9907;42.676;26.348;2023-03-03T01:22:13;99139.84;;;5.86;100.00
19526;BME280;9907;42.676;26.348;2023-03-03T01:24:42;99148.53;;;5.88;100.00
19526;BME280;9907;42.676;26.348;2023-03-03T01:27:07;99139.84;;;5.86;100.00
19526;BME280;9907;42.676;26.348;2023-03-03T01:29:32;99137.06;;;5.88;100.00
19526;BME280;9907;42.676;26.348;2023-03-03T01:31:58;99133.38;;;5.91;100.00
19526;BME280;9907;42.676;26.348;2023-03-03T01:34:24;99129.75;;;5.92;100.00
19526;BME280;9907;42.676;26.348;2023-03-03T01:36:52;99132.75;;;5.87;100.00
19526;BME280;9907;42.676;26.348;2023-03-03T01:39:17;99130.25;;;5.84;100.00
19526;BME280;9907;42.676;26.348;2023-03-03T01:41:43;99127.81;;;5.81;100.00
19526;BME280;9907;42.676;26.348;2023-03-03T01:44:14;99118.69;;;5.85;100.00
19526;BME280;9907;42.676;26.348;2023-03-03T01:49:24;99123.81;;;5.88;100.00
19526;BME280;9907;42.676;26.348;2023-03-03T01:51:57;99119.25;;;5.90;100.00
19526;BME280;9907;42.676;26.348;2023-03-03T01:54:37;99119.47;;;5.87;100.00
19526;BME280;9907;42.676;26.348;2023-03-03T01:57:12;99114.44;;;5.70;100.00
19526;BME280;9907;42.676;26.348;2023-03-03T01:59:44;99120.19;;;5.76;100.00
19526;BME280;9907;42.676;26.348;2023-03-03T02:02:10;99120.72;;;5.81;100.00
19526;BME280;9907;42.676;26.348;2023-03-03T02:04:36;99127.72;;;5.82;100.00
19526;BME280;9907;42.676;26.348;2023-03-03T02:07:06;99129.81;;;5.77;98.71
19526;BME280;9907;42.676;26.348;2023-03-03T02:09:50;99130.88;;;5.75;100.00
19526;BME280;9907;42.676;26.348;2023-03-03T02:12:18;99131.53;;;5.78;100.00
19526;BME280;9907;42.676;26.348;2023-03-03T02:14:44;99130.78;;;5.76;100.00
19526;BME280;9907;42.676;26.348;2023-03-03T02:17:10;99132.06;;;5.83;100.00
19526;BME280;9907;42.676;26.348;2023-03-03T02:22:08;99132.25;;;5.80;100.00
19526;BME280;9907;42.676;26.348;2023-03-03T02:24:43;99129.50;;;5.82;100.00
19526;BME280;9907;42.676;26.348;2023-03-03T02:27:09;99139.25;;;5.81;100.00
19526;BME280;9907;42.676;26.348;2023-03-03T02:29:35;99134.47;;;5.74;100.00
19526;BME280;9907;42.676;26.348;2023-03-03T02:32:01;99130.78;;;5.76;100.00
19526;BME280;9907;42.676;26.348;2023-03-03T02:34:26;99127.50;;;5.85;100.00
19526;BME280;9907;42.676;26.348;2023-03-03T02:36:52;99132.75;;;5.87;100.00
19526;BME280;9907;42.676;26.348;2023-03-03T02:39:25;99134.41;;;5.88;100.00
19526;BME280;9907;42.676;26.348;2023-03-03T02:42:20;99138.78;;;5.89;100.00
19526;BME280;9907;42.676;26.348;2023-03-03T02:44:48;99130.91;;;5.87;100.00
19526;BME280;9907;42.676;26.348;2023-03-03T02:47:13;99131.75;;;5.88;100.00
19526;BME280;9907;42.676;26.348;2023-03-03T02:49:39;99130.91;;;5.87;100.00
19526;BME280;9907;42.676;26.348;2023-03-03T02:52:07;99130.72;;;5.91;100.00
19526;BME280;9907;42.676;26.348;2023-03-03T02:54:34;99129.75;;;5.92;100.00
19526;BME280;9907;42.676;26.348;2023-03-03T02:57:00;99131.88;;;5.86;100.00
19526;BME280;9907;42.676;26.348;2023-03-03T02:59:26;99123.72;;;5.90;99.42
19526;BME280;9907;42.676;26.348;2023-03-03T03:01:53;99124.78;;;5.87;98.92
19526;BME280;9907;42.676;26.348;2023-03-03T03:04:26;99120.13;;;5.91;98.33
19526;BME280;9907;42.676;26.348;2023-03-03T03:06:53;99117.25;;;5.94;97.58
19526;BME280;9907;42.676;26.348;2023-03-03T03:09:20;99113.97;;;5.90;96.70
19526;BME280;9907;42.676;26.348;2023-03-03T03:11:46;99115.97;;;5.86;97.00
19526;BME280;9907;42.676;26.348;2023-03-03T03:14:12;99114.06;;;5.88;98.29
19526;BME280;9907;42.676;26.348;2023-03-03T03:16:38;99117.56;;;5.89;96.33
19526;BME280;9907;42.676;26.348;2023-03-03T03:19:05;99116.63;;;5.90;96.05
19526;BME280;9907;42.676;26.348;2023-03-03T03:21:31;99110.38;;;5.91;96.50
19526;BME280;9907;42.676;26.348;2023-03-03T03:23:57;99114.81;;;5.91;95.86
19526;BME280;9907;42.676;26.348;2023-03-03T03:26:24;99119.13;;;5.92;96.52
19526;BME280;9907;42.676;26.348;2023-03-03T03:28:50;99111.19;;;5.92;100.00
19526;BME280;9907;42.676;26.348;2023-03-03T03:31:16;99115.31;;;5.83;99.43
19526;BME280;9907;42.676;26.348;2023-03-03T03:33:42;99116.03;;;5.85;99.62
19526;BME280;9907;42.676;26.348;2023-03-03T03:36:08;99110.47;;;5.90;99.28
19526;BME280;9907;42.676;26.348;2023-03-03T03:38:35;99120.13;;;5.91;98.02
19526;BME280;9907;42.676;26.348;2023-03-03T03:41:01;99116.50;;;5.92;99.48
19526;BME280;9907;42.676;26.348;2023-03-03T03:43:27;99119.03;;;5.93;98.17
19526;BME280;9907;42.676;26.348;2023-03-03T03:45:53;99114.69;;;5.92;97.89
19526;BME280;9907;42.676;26.348;2023-03-03T03:48:18;99115.44;;;5.94;97.37
19526;BME280;9907;42.676;26.348;2023-03-03T03:50:46;99111.53;;;5.87;100.00
19526;BME280;9907;42.676;26.348;2023-03-03T03:53:12;99110.00;;;5.83;100.00
19526;BME280;9907;42.676;26.348;2023-03-03T03:55:37;99117.56;;;5.89;100.00
19526;BME280;9907;42.676;26.348;2023-03-03T03:58:03;99115.66;;;5.91;100.00
19526;BME280;9907;42.676;26.348;2023-03-03T04:00:29;99115.66;;;5.91;99.56
19526;BME280;9907;42.676;26.348;2023-03-03T04:02:54;99122.13;;;5.87;100.00
19526;BME280;9907;42.676;26.348;2023-03-03T04:05:20;99126.78;;;5.83;100.00
19526;BME280;9907;42.676;26.348;2023-03-03T04:07:46;99119.97;;;5.79;100.00
19526;BME280;9907;42.676;26.348;2023-03-03T04:10:11;99119.44;;;5.74;100.00
19526;BME280;9907;42.676;26.348;2023-03-03T04:12:37;99121.78;;;5.79;100.00
19526;BME280;9907;42.676;26.348;2023-03-03T04:15:08;99121.66;;;5.80;100.00
19526;BME280;9907;42.676;26.348;2023-03-03T04:17:37;99117.31;;;5.79;100.00
19526;BME280;9907;42.676;26.348;2023-03-03T04:20:03;99119.00;;;5.80;100.00
19526;BME280;9907;42.676;26.348;2023-03-03T04:22:29;99111.59;;;5.85;100.00
19526;BME280;9907;42.676;26.348;2023-03-03T04:25:03;99105.44;;;5.85;100.00
19526;BME280;9907;42.676;26.348;2023-03-03T04:27:31;99111.53;;;5.87;100.00
19526;BME280;9907;42.676;26.348;2023-03-03T04:29:57;99114.25;;;5.85;100.00
19526;BME280;9907;42.676;26.348;2023-03-03T04:32:22;99119.75;;;5.82;100.00
19526;BME280;9907;42.676;26.348;2023-03-03T04:34:48;99114.25;;;5.85;100.00
19526;BME280;9907;42.676;26.348;2023-03-03T04:37:13;99116.88;;;5.85;100.00
19526;BME280;9907;42.676;26.348;2023-03-03T04:39:39;99108.75;;;5.88;100.00
19526;BME280;9907;42.676;26.348;2023-03-03T04:42:05;99107.03;;;5.87;100.00
19526;BME280;9907;42.676;26.348;2023-03-03T04:44:30;99108.22;;;5.83;100.00
19526;BME280;9907;42.676;26.348;2023-03-03T04:46:56;99105.44;;;5.85;100.00
19526;BME280;9907;42.676;26.348;2023-03-03T04:49:21;99102.06;;;5.83;100.00
19526;BME280;9907;42.676;26.348;2023-03-03T04:51:47;99099.28;;;5.84;100.00
19526;BME280;9907;42.676;26.348;2023-03-03T04:54:12;99095.91;;;5.82;100.00
19526;BME280;9907;42.676;26.348;2023-03-03T04:56:38;99102.81;;;5.72;100.00
19526;BME280;9907;42.676;26.348;2023-03-03T04:59:04;99110.53;;;5.75;100.00
19526;BME280;9907;42.676;26.348;2023-03-03T05:01:30;99115.41;;;5.81;100.00
19526;BME280;9907;42.676;26.348;2023-03-03T05:03:55;99110.75;;;5.85;100.00
19526;BME280;9907;42.676;26.348;2023-03-03T05:06:21;99118.63;;;5.86;100.00
19526;BME280;9907;42.676;26.348;2023-03-03T05:08:47;99112.25;;;5.89;100.00
19526;BME280;9907;42.676;26.348;2023-03-03T05:11:13;99117.56;;;5.89;100.00
19526;BME280;9907;42.676;26.348;2023-03-03T05:13:38;99111.19;;;5.92;100.00
19526;BME280;9907;42.676;26.348;2023-03-03T05:16:04;99114.81;;;5.91;100.00
19526;BME280;9907;42.676;26.348;2023-03-03T05:18:30;99115.00;;;5.87;100.00
19526;BME280;9907;42.676;26.348;2023-03-03T05:20:56;99123.72;;;5.90;100.00
19526;BME280;9907;42.676;26.348;2023-03-03T05:23:22;99121.78;;;5.92;100.00
19526;BME280;9907;42.676;26.348;2023-03-03T05:25:48;99119.03;;;5.93;100.00
19526;BME280;9907;42.676;26.348;2023-03-03T05:28:14;99121.69;;;5.93;100.00
19526;BME280;9907;42.676;26.348;2023-03-03T05:30:39;99114.59;;;5.94;100.00
19526;BME280;9907;42.676;26.348;2023-03-03T05:33:05;99115.31;;;5.96;100.00
19526;BME280;9907;42.676;26.348;2023-03-03T05:35:34;99118.81;;;5.96;100.00
19526;BME280;9907;42.676;26.348;2023-03-03T05:38:00;99115.22;;;5.97;100.00
19526;BME280;9907;42.676;26.348;2023-03-03T05:40:26;99113.31;;;5.99;100.00
19526;BME280;9907;42.676;26.348;2023-03-03T05:42:52;99119.47;;;6.00;100.00
19526;BME280;9907;42.676;26.348;2023-03-03T05:45:18;99116.72;;;5.88;100.00
19526;BME280;9907;42.676;26.348;2023-03-03T05:47:46;99124.00;;;5.85;100.00
19526;BME280;9907;42.676;26.348;2023-03-03T05:50:12;99115.00;;;5.87;100.00
19526;BME280;9907;42.676;26.348;2023-03-03T05:52:38;99113.44;;;5.98;100.00
19526;BME280;9907;42.676;26.348;2023-03-03T05:55:03;99097.31;;;6.01;100.00
19526;BME280;9907;42.676;26.348;2023-03-03T05:57:29;99097.84;;;6.06;100.00
19526;BME280;9907;42.676;26.348;2023-03-03T05:59:55;99098.78;;;6.05;100.00
19526;BME280;9907;42.676;26.348;2023-03-03T06:02:21;99091.06;;;6.02;100.00
19526;BME280;9907;42.676;26.348;2023-03-03T06:04:47;99092.72;;;6.03;100.00
19526;BME280;9907;42.676;26.348;2023-03-03T06:07:12;99088.59;;;5.99;100.00
19526;BME280;9907;42.676;26.348;2023-03-03T06:09:38;99091.47;;;5.96;100.00
19526;BME280;9907;42.676;26.348;2023-03-03T06:12:05;99087.22;;;5.93;100.00
19526;BME280;9907;42.676;26.348;2023-03-03T06:14:31;99087.41;;;6.03;100.00
19526;BME280;9907;42.676;26.348;2023-03-03T06:16:57;99089.56;;;5.98;100.00
19526;BME280;9907;42.676;26.348;2023-03-03T06:19:23;99079.19;;;5.95;100.00
19526;BME280;9907;42.676;26.348;2023-03-03T06:21:49;99083.09;;;6.02;100.00
19526;BME280;9907;42.676;26.348;2023-03-03T06:24:14;99086.16;;;6.08;100.00
19526;BME280;9907;42.676;26.348;2023-03-03T06:26:40;99084.66;;;6.17;100.00
19526;BME280;9907;42.676;26.348;2023-03-03T06:29:06;99084.44;;;6.20;100.00
19526;BME280;9907;42.676;26.348;2023-03-03T06:31:32;99090.16;;;6.26;100.00
19526;BME280;9907;42.676;26.348;2023-03-03T06:33:58;99100.38;;;6.20;100.00
19526;BME280;9907;42.676;26.348;2023-03-03T06:36:26;99100.88;;;6.25;100.00
19526;BME280;9907;42.676;26.348;2023-03-03T06:38:51;99101.94;;;6.22;100.00
19526;BME280;9907;42.676;26.348;2023-03-03T06:41:17;99105.13;;;6.15;100.00
19526;BME280;9907;42.676;26.348;2023-03-03T06:43:42;99110.22;;;6.18;100.00
19526;BME280;9907;42.676;26.348;2023-03-03T06:46:07;99107.34;;;6.21;100.00
19526;BME280;9907;42.676;26.348;2023-03-03T06:48:33;99105.44;;;6.23;100.00
19526;BME280;9907;42.676;26.348;2023-03-03T06:51:01;99108.00;;;6.24;100.00
19526;BME280;9907;42.676;26.348;2023-03-03T06:53:26;99104.19;;;6.16;100.00
19526;BME280;9907;42.676;26.348;2023-03-03T06:56:01;99107.88;;;6.26;100.00
19526;BME280;9907;42.676;26.348;2023-03-03T06:58:26;99110.69;;;6.48;100.00
19526;BME280;9907;42.676;26.348;2023-03-03T07:00:58;99112.63;;;6.46;100.00
19526;BME280;9907;42.676;26.348;2023-03-03T07:03:34;99112.91;;;6.54;100.00
19526;BME280;9907;42.676;26.348;2023-03-03T07:06:00;99108.25;;;6.45;100.00
19526;BME280;9907;42.676;26.348;2023-03-03T07:08:30;99111.53;;;6.49;100.00
19526;BME280;9907;42.676;26.348;2023-03-03T07:11:00;99109.97;;;6.46;100.00
19526;BME280;9907;42.676;26.348;2023-03-03T07:13:32;99109.75;;;6.36;100.00
19526;BME280;9907;42.676;26.348;2023-03-03T07:16:01;99109.22;;;6.44;100.00
19526;BME280;9907;42.676;26.348;2023-03-03T07:18:54;99114.50;;;6.57;100.00
19526;BME280;9907;42.676;26.348;2023-03-03T07:21:21;99113.03;;;6.53;100.00
19526;BME280;9907;42.676;26.348;2023-03-03T07:23:49;99109.84;;;6.48;100.00
19526;BME280;9907;42.676;26.348;2023-03-03T07:26:20;99114.59;;;6.55;100.00
19526;BME280;9907;42.676;26.348;2023-03-03T07:28:57;99111.94;;;6.55;100.00
19526;BME280;9907;42.676;26.348;2023-03-03T07:31:35;99112.63;;;6.46;100.00
19526;BME280;9907;42.676;26.348;2023-03-03T07:34:21;99109.00;;;6.47;100.00
19526;BME280;9907;42.676;26.348;2023-03-03T07:36:49;99110.81;;;6.47;100.00
19526;BME280;9907;42.676;26.348;2023-03-03T07:39:36;99107.50;;;6.56;100.00
19526;BME280;9907;42.676;26.348;2023-03-03T07:44:36;99110.31;;;6.65;100.00
19526;BME280;9907;42.676;26.348;2023-03-03T07:49:48;99104.59;;;6.71;100.00
19526;BME280;9907;42.676;26.348;2023-03-03T07:52:27;99099.50;;;6.68;99.27
19526;BME280;9907;42.676;26.348;2023-03-03T07:54:56;99095.88;;;6.69;100.00
19526;BME280;9907;42.676;26.348;2023-03-03T07:59:54;99088.13;;;6.66;100.00
19526;BME280;9907;42.676;26.348;2023-03-03T08:02:39;99080.69;;;6.71;99.99
19526;BME280;9907;42.676;26.348;2023-03-03T08:05:29;99089.38;;;6.73;100.00
19526;BME280;9907;42.676;26.348;2023-03-03T08:10:48;99073.63;;;6.83;98.11
19526;BME280;9907;42.676;26.348;2023-03-03T08:13:25;99071.88;;;6.95;97.98
19526;BME280;9907;42.676;26.348;2023-03-03T08:15:58;99053.78;;;7.00;97.23
19526;BME280;9907;42.676;26.348;2023-03-03T08:18:34;99055.16;;;7.05;96.86
19526;BME280;9907;42.676;26.348;2023-03-03T08:21:11;99052.50;;;7.05;96.07
19526;BME280;9907;42.676;26.348;2023-03-03T08:23:40;99046.81;;;7.10;96.52
19526;BME280;9907;42.676;26.348;2023-03-03T08:26:05;99052.03;;;7.11;95.88
19526;BME280;9907;42.676;26.348;2023-03-03T08:28:31;99043.72;;;7.16;96.07
19526;BME280;9907;42.676;26.348;2023-03-03T08:30:57;99043.75;;;7.27;95.54
19526;BME280;9907;42.676;26.348;2023-03-03T08:33:23;99043.25;;;7.33;94.80
19526;BME280;9907;42.676;26.348;2023-03-03T08:35:48;99044.38;;;7.42;94.62
19526;BME280;9907;42.676;26.348;2023-03-03T08:38:17;99046.19;;;7.41;94.52
19526;BME280;9907;42.676;26.348;2023-03-03T08:40:43;99041.63;;;7.54;94.80
19526;BME280;9907;42.676;26.348;2023-03-03T08:43:09;99045.97;;;7.55;91.90
19526;BME280;9907;42.676;26.348;2023-03-03T08:45:35;99043.31;;;7.66;91.21
19526;BME280;9907;42.676;26.348;2023-03-03T08:48:01;99044.44;;;7.75;90.09
19526;BME280;9907;42.676;26.348;2023-03-03T08:50:28;99042.63;;;7.87;89.84
19526;BME280;9907;42.676;26.348;2023-03-03T08:52:54;99042.41;;;8.01;91.11
19526;BME280;9907;42.676;26.348;2023-03-03T08:55:20;99041.44;;;8.02;87.56
19526;BME280;9907;42.676;26.348;2023-03-03T08:57:45;99040.59;;;7.90;88.69
19526;BME280;9907;42.676;26.348;2023-03-03T09:00:13;99051.09;;;8.03;89.11
19526;BME280;9907;42.676;26.348;2023-03-03T09:02:39;99047.47;;;8.04;88.42
19526;BME280;9907;42.676;26.348;2023-03-03T09:05:15;99047.56;;;8.13;88.83
19526;BME280;9907;42.676;26.348;2023-03-03T09:07:42;99055.44;;;7.93;88.81
19526;BME280;9907;42.676;26.348;2023-03-03T09:10:11;99048.91;;;7.74;90.13
19526;BME280;9907;42.676;26.348;2023-03-03T09:12:42;99053.63;;;7.71;90.90
19526;BME280;9907;42.676;26.348;2023-03-03T09:15:19;99049.16;;;7.71;89.27
19526;BME280;9907;42.676;26.348;2023-03-03T09:17:46;99054.44;;;7.60;89.78
19526;BME280;9907;42.676;26.348;2023-03-03T09:20:51;99052.16;;;7.67;89.46
19526;BME280;9907;42.676;26.348;2023-03-03T09:23:34;99052.25;;;7.65;91.30
19526;BME280;9907;42.676;26.348;2023-03-03T09:26:25;99048.31;;;7.71;91.56
19526;BME280;9907;42.676;26.348;2023-03-03T09:31:55;99050.38;;;8.01;90.27
19526;BME280;9907;42.676;26.348;2023-03-03T09:37:13;99058.19;;;7.69;88.69
19526;BME280;9907;42.676;26.348;2023-03-03T09:39:39;99050.59;;;7.64;89.20
19526;BME280;9907;42.676;26.348;2023-03-03T09:53:15;99039.72;;;7.90;88.23
19526;BME280;9907;42.676;26.348;2023-03-03T09:56:13;99029.56;;;7.83;87.79
19526;BME280;9907;42.676;26.348;2023-03-03T10:07:42;99012.38;;;7.88;87.22
19526;BME280;9907;42.676;26.348;2023-03-03T10:13:30;99007.06;;;7.99;87.82
19526;BME280;9907;42.676;26.348;2023-03-03T10:24:25;98991.84;;;7.90;88.51
19526;BME280;9907;42.676;26.348;2023-03-03T10:27:06;98993.78;;;7.88;89.12
19526;BME280;9907;42.676;26.348;2023-03-03T10:32:56;98989.81;;;7.71;89.69
19526;BME280;9907;42.676;26.348;2023-03-03T10:35:49;98979.78;;;7.63;90.43
19526;BME280;9907;42.676;26.348;2023-03-03T10:49:35;98961.88;;;7.88;90.80
19526;BME280;9907;42.676;26.348;2023-03-03T10:55:05;98956.41;;;8.00;89.81
19526;BME280;9907;42.676;26.348;2023-03-03T11:00:34;98939.09;;;8.06;89.30
19526;BME280;9907;42.676;26.348;2023-03-03T11:06:10;98928.72;;;8.03;88.36
19526;BME280;9907;42.676;26.348;2023-03-03T11:09:07;98923.63;;;8.11;88.51
19526;BME280;9907;42.676;26.348;2023-03-03T11:14:46;98925.59;;;8.09;89.16
19526;BME280;9907;42.676;26.348;2023-03-03T11:25:46;98927.09;;;7.79;91.21
19526;BME280;9907;42.676;26.348;2023-03-03T11:33:25;98928.03;;;7.90;91.44
19526;BME280;9907;42.676;26.348;2023-03-03T11:36:30;98936.38;;;7.85;90.73
19526;BME280;9907;42.676;26.348;2023-03-03T11:39:08;98926.25;;;7.68;94.17
19526;BME280;9907;42.676;26.348;2023-03-03T11:41:38;98922.84;;;7.55;98.35
19526;BME280;9907;42.676;26.348;2023-03-03T11:44:30;98930.72;;;7.67;98.20
19526;BME280;9907;42.676;26.348;2023-03-03T11:47:13;98923.44;;;7.69;99.90
19526;BME280;9907;42.676;26.348;2023-03-03T11:49:59;98921.78;;;7.68;99.84
19526;BME280;9907;42.676;26.348;2023-03-03T11:52:58;98918.88;;;7.60;100.00
19526;BME280;9907;42.676;26.348;2023-03-03T11:55:29;98916.81;;;7.64;99.56
19526;BME280;9907;42.676;26.348;2023-03-03T11:58:11;98916.31;;;7.70;100.00
19526;BME280;9907;42.676;26.348;2023-03-03T12:11:51;98911.59;;;7.73;100.00
19526;BME280;9907;42.676;26.348;2023-03-03T12:25:50;98922.84;;;7.55;100.00
19526;BME280;9907;42.676;26.348;2023-03-03T12:28:24;98926.25;;;7.46;100.00
19526;BME280;9907;42.676;26.348;2023-03-03T12:31:12;98919.34;;;7.43;100.00
19526;BME280;9907;42.676;26.348;2023-03-03T12:33:51;98929.63;;;7.48;100.00
19526;BME280;9907;42.676;26.348;2023-03-03T12:36:44;98922.84;;;7.44;100.00
19526;BME280;9907;42.676;26.348;2023-03-03T12:49:33;98920.31;;;7.20;100.00
19526;BME280;9907;42.676;26.348;2023-03-03T13:00:48;98914.16;;;7.30;100.00
19526;BME280;9907;42.676;26.348;2023-03-03T13:03:43;98912.22;;;7.32;100.00
19526;BME280;9907;42.676;26.348;2023-03-03T13:06:29;98904.13;;;7.34;100.00
19526;BME280;9907;42.676;26.348;2023-03-03T13:09:07;98905.09;;;7.22;100.00
19526;BME280;9907;42.676;26.348;2023-03-03T13:22:58;98915.13;;;7.41;100.00
19526;BME280;9907;42.676;26.348;2023-03-03T13:31:25;98915.59;;;7.23;100.00
19526;BME280;9907;42.676;26.348;2023-03-03T13:33:55;98915.22;;;7.28;100.00
19526;BME280;9907;42.676;26.348;2023-03-03T13:36:25;98910.53;;;7.20;100.00
19526;BME280;9907;42.676;26.348;2023-03-03T13:39:03;98913.03;;;7.11;100.00
19526;BME280;9907;42.676;26.348;2023-03-03T13:41:46;98910.38;;;7.11;100.00
19526;BME280;9907;42.676;26.348;2023-03-03T13:44:30;98908.66;;;6.99;100.00
19526;BME280;9907;42.676;26.348;2023-03-03T13:52:31;98908.81;;;7.08;100.00
19526;BME280;9907;42.676;26.348;2023-03-03T14:03:20;98897.38;;;7.41;100.00
19526;BME280;9907;42.676;26.348;2023-03-03T14:05:50;98893.25;;;7.37;100.00
19526;BME280;9907;42.676;26.348;2023-03-03T14:16:46;98882.28;;;7.19;100.00
19526;BME280;9907;42.676;26.348;2023-03-03T14:22:41;98875.38;;;7.28;100.00
19526;BME280;9907;42.676;26.348;2023-03-03T14:25:13;98878.88;;;7.28;100.00
19526;BME280;9907;42.676;26.348;2023-03-03T14:28:08;98876.47;;;7.37;100.00
19526;BME280;9907;42.676;26.348;2023-03-03T14:30:43;98890.84;;;7.34;100.00
19526;BME280;9907;42.676;26.348;2023-03-03T14:33:20;98878.66;;;7.31;100.00
19526;BME280;9907;42.676;26.348;2023-03-03T14:36:01;98867.41;;;7.28;100.00
19526;BME280;9907;42.676;26.348;2023-03-03T14:43:38;98875.16;;;7.20;100.00
19526;BME280;9907;42.676;26.348;2023-03-03T14:48:56;98859.81;;;7.23;100.00
19526;BME280;9907;42.676;26.348;2023-03-03T14:51:37;98861.47;;;7.24;100.00
19526;BME280;9907;42.676;26.348;2023-03-03T14:54:26;98856.56;;;7.31;100.00
19526;BME280;9907;42.676;26.348;2023-03-03T14:56:58;98854.00;;;7.29;100.00
19526;BME280;9907;42.676;26.348;2023-03-03T14:59:25;98861.63;;;7.12;100.00
19526;BME280;9907;42.676;26.348;2023-03-03T15:02:26;98865.47;;;7.08;100.00
19526;BME280;9907;42.676;26.348;2023-03-03T15:05:11;98855.47;;;7.11;100.00
19526;BME280;9907;42.676;26.348;2023-03-03T15:07:37;98862.56;;;7.11;100.00
19526;BME280;9907;42.676;26.348;2023-03-03T15:10:05;98869.34;;;7.04;100.00
19526;BME280;9907;42.676;26.348;2023-03-03T15:17:37;98873.09;;;7.12;100.00
19526;BME280;9907;42.676;26.348;2023-03-03T15:30:52;98885.50;;;7.01;100.00
19526;BME280;9907;42.676;26.348;2023-03-03T15:33:39;98888.03;;;7.02;100.00
19526;BME280;9907;42.676;26.348;2023-03-03T15:36:43;98880.19;;;7.01;100.00
19526;BME280;9907;42.676;26.348;2023-03-03T15:39:30;98884.19;;;7.06;100.00
19526;BME280;9907;42.676;26.348;2023-03-03T15:45:00;98885.16;;;7.05;100.00
19526;BME280;9907;42.676;26.348;2023-03-03T15:55:51;98891.31;;;6.95;100.00
19526;BME280;9907;42.676;26.348;2023-03-03T16:03:59;98901.16;;;6.81;100.00
19526;BME280;9907;42.676;26.348;2023-03-03T16:12:19;98906.34;;;6.72;100.00
19526;BME280;9907;42.676;26.348;2023-03-03T16:18:01;98906.44;;;6.70;100.00
19526;BME280;9907;42.676;26.348;2023-03-03T16:20:32;98917.81;;;6.72;100.00
19526;BME280;9907;42.676;26.348;2023-03-03T16:23:43;98915.59;;;6.66;100.00
19526;BME280;9907;42.676;26.348;2023-03-03T16:29:19;98917.41;;;6.66;100.00
19526;BME280;9907;42.676;26.348;2023-03-03T16:31:56;98924.03;;;6.60;100.00
19526;BME280;9907;42.676;26.348;2023-03-03T16:34:44;98924.28;;;6.57;100.00
19526;BME280;9907;42.676;26.348;2023-03-03T16:40:08;98940.19;;;6.57;100.00
19526;BME280;9907;42.676;26.348;2023-03-03T16:42:35;98936.31;;;6.50;100.00
19526;BME280;9907;42.676;26.348;2023-03-03T16:45:16;98947.13;;;6.47;100.00
19526;BME280;9907;42.676;26.348;2023-03-03T16:48:04;98948.66;;;6.39;100.00
19526;BME280;9907;42.676;26.348;2023-03-03T16:50:59;98949.47;;;6.28;100.00
19526;BME280;9907;42.676;26.348;2023-03-03T16:54:02;98952.00;;;6.29;100.00
19526;BME280;9907;42.676;26.348;2023-03-03T16:56:57;98962.50;;;6.31;100.00
19526;BME280;9907;42.676;26.348;2023-03-03T16:59:35;98972.50;;;6.27;100.00
19526;BME280;9907;42.676;26.348;2023-03-03T17:13:27;98979.69;;;6.25;100.00
19526;BME280;9907;42.676;26.348;2023-03-03T17:19:04;98967.00;;;6.18;100.00
19526;BME280;9907;42.676;26.348;2023-03-03T17:24:46;98963.44;;;6.30;100.00
19526;BME280;9907;42.676;26.348;2023-03-03T17:30:13;98980.84;;;6.34;100.00
19526;BME280;9907;42.676;26.348;2023-03-03T17:33:19;98976.63;;;6.31;100.00
19526;BME280;9907;42.676;26.348;2023-03-03T17:36:12;98975.63;;;6.32;100.00
19526;BME280;9907;42.676;26.348;2023-03-03T17:45:04;98996.75;;;6.34;100.00
19526;BME280;9907;42.676;26.348;2023-03-03T18:00:09;98995.28;;;6.30;100.00
19526;BME280;9907;42.676;26.348;2023-03-03T18:03:07;99006.97;;;6.27;100.00